Time;durP1;ratioP1;P1;durP2;ratioP2;P2;SDS_P1;SDS_P2;PMS_P1;PMS_P2;Temp;Humidity;BMP_temperature;BMP_pressure;BME280_temperature;BME280_humidity;BME280_pressure;Samples;Min_cycle;Max_cycle;Signal;HPM_P1;HPM_P2
2023/07/10 00:00:56;;;;;;;0.80;0.80;;;;;;;18.13;79.84;97255.84;4983542;28;20061;-64
2023/07/10 00:03:23;;;;;;;0.80;0.80;;;;;;;18.48;80.15;97294.81;4985679;28;20140;-63
2023/07/10 00:05:50;;;;;;;0.75;0.75;;;;;;;18.30;78.85;97260.53;4984808;28;20141;-63
2023/07/10 00:08:16;;;;;;;0.80;0.80;;;;;;;18.12;79.56;97254.28;4966153;28;20055;-63
2023/07/10 00:10:44;;;;;;;0.80;0.80;;;;;;;18.29;80.98;97272.16;4964243;28;20061;-63
2023/07/10 00:13:12;;;;;;;0.80;0.80;;;;;;;18.23;81.50;97276.59;4965689;28;20058;-65
2023/07/10 00:15:40;;;;;;;0.80;0.80;;;;;;;18.50;81.24;97306.44;4979911;28;20141;-66
2023/07/10 00:18:15;;;;;;;0.80;0.80;;;;;;;18.08;81.47;97270.34;4984723;28;20046;-64
2023/07/10 00:20:42;;;;;;;0.80;0.80;;;;;;;18.23;81.29;97294.22;4984914;28;20084;-64
2023/07/10 00:23:09;;;;;;;0.80;0.80;;;;;;;18.25;81.52;97297.41;4985175;28;20132;-64
2023/07/10 00:25:36;;;;;;;0.80;0.80;;;;;;;18.01;82.03;97259.19;4984838;28;20058;-64
2023/07/10 00:28:13;;;;;;;0.80;0.80;;;;;;;18.19;80.18;97276.66;4984809;28;20141;-64
2023/07/10 00:30:40;;;;;;;0.75;0.75;;;;;;;18.23;79.95;97283.00;4984615;28;20715;-64
2023/07/10 00:33:10;;;;;;;0.70;0.70;;;;;;;18.08;82.54;97304.75;4983319;28;20054;-65
2023/07/10 00:35:38;;;;;;;0.80;0.80;;;;;;;18.08;83.15;97304.00;4984525;28;20050;-64
2023/07/10 00:38:27;;;;;;;0.80;0.80;;;;;;;18.17;82.48;97295.09;4984318;28;20062;-65
2023/07/10 00:40:56;;;;;;;0.80;0.80;;;;;;;18.01;81.31;97278.78;4984486;28;20054;-64
2023/07/10 00:43:30;;;;;;;0.80;0.80;;;;;;;17.99;82.20;97300.84;4984692;28;20062;-63
2023/07/10 00:46:09;;;;;;;0.80;0.80;;;;;;;18.04;81.78;97286.38;4983460;28;20064;-65
2023/07/10 00:48:50;;;;;;;0.80;0.80;;;;;;;17.95;81.77;97277.66;4985150;28;20050;-65
2023/07/10 00:51:39;;;;;;;0.80;0.80;;;;;;;17.37;81.40;97199.22;4984216;28;20046;-64
2023/07/10 00:54:20;;;;;;;0.80;0.80;;;;;;;17.63;81.73;97265.88;4984606;28;20087;-64
2023/07/10 00:56:47;;;;;;;0.70;0.70;;;;;;;17.78;82.89;97306.63;4984842;28;20076;-65
2023/07/10 00:59:26;;;;;;;0.70;0.70;;;;;;;17.84;83.28;97302.16;4983330;28;20495;-65
2023/07/10 01:02:07;;;;;;;0.80;0.80;;;;;;;17.88;81.95;97312.13;4985018;28;20137;-64
2023/07/10 01:04:39;;;;;;;0.80;0.80;;;;;;;17.52;82.97;97270.75;4988975;28;20101;-65
2023/07/10 01:07:10;;;;;;;0.70;0.70;;;;;;;17.84;82.85;97304.97;4988347;28;20061;-64
2023/07/10 01:09:38;;;;;;;0.80;0.80;;;;;;;17.70;82.50;97279.84;4988390;28;20539;-65
2023/07/10 01:12:06;;;;;;;0.73;0.73;;;;;;;17.48;83.80;97265.16;4988164;28;20050;-64
2023/07/10 01:14:34;;;;;;;0.70;0.70;;;;;;;17.54;82.96;97269.16;4987599;28;20061;-64
2023/07/10 01:17:03;;;;;;;0.70;0.70;;;;;;;17.77;83.32;97300.22;4988259;28;20137;-65
2023/07/10 01:19:32;;;;;;;0.80;0.80;;;;;;;17.58;83.09;97275.53;4988209;28;20145;-65
2023/07/10 01:21:59;;;;;;;0.80;0.80;;;;;;;17.74;82.71;97300.22;4986750;28;20438;-64
2023/07/10 01:24:26;;;;;;;0.82;0.82;;;;;;;16.11;82.63;97047.66;4986720;28;20141;-64
2023/07/10 01:26:53;;;;;;;0.80;0.80;;;;;;;17.69;82.00;97290.25;4988143;28;20051;-64
2023/07/10 01:29:42;;;;;;;0.70;0.70;;;;;;;17.72;82.40;97299.84;4987762;28;20056;-66
2023/07/10 01:32:16;;;;;;;0.73;0.73;;;;;;;17.70;82.21;97305.06;4987729;28;20090;-64
2023/07/10 01:34:50;;;;;;;0.70;0.70;;;;;;;17.60;82.24;97294.72;4987703;28;20600;-64
2023/07/10 01:37:16;;;;;;;0.80;0.80;;;;;;;17.34;83.10;97247.66;4987915;28;20580;-64
2023/07/10 01:39:48;;;;;;;0.70;0.70;;;;;;;17.74;83.98;97308.63;4988037;28;20437;-65
2023/07/10 01:42:15;;;;;;;0.75;0.75;;;;;;;16.87;83.59;97161.53;4986304;28;20057;-65
2023/07/10 01:44:44;;;;;;;0.70;0.70;;;;;;;17.90;82.88;97311.72;4987603;28;20058;-63
2023/07/10 01:47:13;;;;;;;0.85;0.85;;;;;;;17.87;81.95;97315.34;4987307;28;20054;-64
2023/07/10 01:49:55;;;;;;;0.80;0.80;;;;;;;17.86;81.46;97317.34;4987593;28;20398;-64
2023/07/10 01:52:22;;;;;;;0.80;0.80;;;;;;;17.63;80.96;97277.09;4987168;28;20061;-64
2023/07/10 01:54:49;;;;;;;0.80;0.80;;;;;;;17.78;81.44;97324.22;4987106;28;20082;-64
2023/07/10 01:57:23;;;;;;;0.80;0.80;;;;;;;17.15;82.50;97228.56;4986442;28;20054;-64
2023/07/10 01:59:53;;;;;;;0.80;0.80;;;;;;;17.66;82.91;97307.06;4986005;28;20124;-64
2023/07/10 02:02:20;;;;;;;0.80;0.80;;;;;;;17.62;83.10;97297.91;4987706;28;20303;-65
2023/07/10 02:04:47;;;;;;;0.70;0.70;;;;;;;17.38;82.67;97254.00;4987421;28;20289;-64
2023/07/10 02:07:14;;;;;;;0.73;0.73;;;;;;;17.65;83.00;97303.50;4986885;28;20207;-64
2023/07/10 02:09:40;;;;;;;0.70;0.70;;;;;;;17.58;83.38;97308.31;4987153;28;20047;-64
2023/07/10 02:12:08;;;;;;;0.80;0.80;;;;;;;17.05;83.81;97232.22;4985761;28;20073;-66
2023/07/10 02:14:34;;;;;;;0.70;0.70;;;;;;;17.42;83.74;97289.19;4986412;28;20058;-65
2023/07/10 02:17:01;;;;;;;0.75;0.75;;;;;;;17.27;82.95;97250.47;4987558;28;20058;-64
2023/07/10 02:19:28;;;;;;;0.80;0.80;;;;;;;17.32;83.56;97278.06;4987026;28;20050;-65
2023/07/10 02:21:54;;;;;;;0.70;0.70;;;;;;;17.33;83.37;97280.44;4987128;28;20244;-64
2023/07/10 02:24:21;;;;;;;0.80;0.80;;;;;;;17.09;83.01;97252.56;4985655;28;20137;-64
2023/07/10 02:26:47;;;;;;;0.70;0.70;;;;;;;17.19;84.64;97302.13;4986961;28;20053;-64
2023/07/10 02:29:14;;;;;;;0.80;0.80;;;;;;;17.32;83.78;97303.25;4987224;28;20081;-65
2023/07/10 02:31:41;;;;;;;0.77;0.77;;;;;;;17.00;85.03;97283.00;4987278;28;20052;-64
2023/07/10 02:34:08;;;;;;;0.70;0.70;;;;;;;16.55;85.47;97212.84;4986879;28;20050;-64
2023/07/10 02:36:34;;;;;;;0.80;0.80;;;;;;;16.99;84.08;97279.44;4986776;28;20065;-65
2023/07/10 02:39:02;;;;;;;0.70;0.70;;;;;;;17.10;83.94;97287.78;4986410;28;20082;-65
2023/07/10 02:41:28;;;;;;;0.73;0.73;;;;;;;16.60;84.97;97237.59;4986292;28;20738;-64
2023/07/10 02:43:55;;;;;;;0.70;0.70;;;;;;;16.44;84.95;97200.91;4981365;28;20437;-64
2023/07/10 02:46:22;;;;;;;0.70;0.70;;;;;;;15.73;84.14;97086.91;4966899;28;20141;-65
2023/07/10 02:48:49;;;;;;;0.70;0.70;;;;;;;17.00;85.24;97288.59;4981752;28;20071;-64
2023/07/10 02:51:16;;;;;;;0.63;0.63;;;;;;;16.83;86.17;97295.06;4965533;28;20062;-66
2023/07/10 02:53:43;;;;;;;0.70;0.70;;;;;;;16.80;86.49;97290.28;4966746;28;20505;-64
2023/07/10 02:56:09;;;;;;;0.80;0.80;;;;;;;16.83;86.37;97295.06;4966785;28;20133;-64
2023/07/10 02:58:36;;;;;;;0.80;0.80;;;;;;;16.72;86.58;97267.13;4966783;28;20556;-64
2023/07/10 03:01:03;;;;;;;0.70;0.70;;;;;;;16.97;85.32;97314.59;4966976;28;20057;-64
2023/07/10 03:03:30;;;;;;;0.70;0.70;;;;;;;16.70;84.43;97260.34;4958952;28;20573;-64
2023/07/10 03:05:59;;;;;;;0.77;0.77;;;;;;;17.20;84.67;97342.94;4977117;28;20047;-65
2023/07/10 03:08:27;;;;;;;0.70;0.70;;;;;;;17.17;85.34;97343.72;4966969;28;20427;-64
2023/07/10 03:11:09;;;;;;;0.80;0.80;;;;;;;17.10;84.97;97343.75;4965456;28;20066;-65
2023/07/10 03:13:36;;;;;;;0.70;0.70;;;;;;;17.07;85.13;97336.19;4965669;28;20065;-64
2023/07/10 03:16:08;;;;;;;0.70;0.70;;;;;;;16.56;86.19;97242.44;4981556;28;20513;-65
2023/07/10 03:18:36;;;;;;;0.70;0.70;;;;;;;16.98;86.46;97317.00;4986142;28;20082;-64
2023/07/10 03:21:03;;;;;;;0.70;0.70;;;;;;;16.76;86.23;97255.91;4984267;28;20081;-64
2023/07/10 03:23:29;;;;;;;0.80;0.80;;;;;;;17.40;84.71;97335.63;4985664;28;20058;-65
2023/07/10 03:25:57;;;;;;;0.70;0.70;;;;;;;16.94;83.34;97245.47;4984776;28;20049;-64
2023/07/10 03:28:24;;;;;;;0.80;0.80;;;;;;;17.29;82.84;97323.69;4985476;28;20406;-64
2023/07/10 03:30:50;;;;;;;0.70;0.70;;;;;;;17.43;84.54;97334.81;4985531;28;20562;-65
2023/07/10 03:33:19;;;;;;;0.80;0.80;;;;;;;17.56;83.58;97344.38;4985693;28;20057;-65
2023/07/10 03:35:49;;;;;;;0.80;0.80;;;;;;;17.56;82.86;97333.94;4985546;28;20087;-64
2023/07/10 03:38:16;;;;;;;0.70;0.70;;;;;;;17.70;82.61;97344.28;4985253;28;20488;-65
2023/07/10 03:40:53;;;;;;;0.80;0.80;;;;;;;17.87;81.92;97352.59;4985665;28;20057;-64
2023/07/10 03:43:19;;;;;;;0.80;0.80;;;;;;;17.72;80.85;97313.88;4985471;28;20051;-65
2023/07/10 03:45:46;;;;;;;0.70;0.70;;;;;;;17.44;81.08;97280.38;4984964;28;20652;-65
2023/07/10 03:48:13;;;;;;;0.80;0.80;;;;;;;17.54;79.86;97279.56;4985413;28;20510;-64
2023/07/10 03:50:40;;;;;;;0.77;0.77;;;;;;;17.30;80.71;97258.06;4985247;28;20050;-65
2023/07/10 03:53:07;;;;;;;0.80;0.80;;;;;;;17.91;80.47;97344.13;4985515;28;20524;-66
2023/07/10 03:55:33;;;;;;;0.80;0.80;;;;;;;17.75;80.02;97324.25;4984905;28;20054;-64
2023/07/10 03:58:00;;;;;;;0.80;0.80;;;;;;;17.91;80.86;97338.53;4983933;28;20057;-64
2023/07/10 04:00:27;;;;;;;0.80;0.80;;;;;;;17.61;79.88;97279.50;4985184;28;20232;-66
2023/07/10 04:02:53;;;;;;;0.80;0.80;;;;;;;18.06;80.29;97337.22;4983459;28;20078;-64
2023/07/10 04:05:20;;;;;;;0.80;0.80;;;;;;;18.03;80.98;97329.66;4984743;28;20054;-65
2023/07/10 04:07:47;;;;;;;0.80;0.80;;;;;;;18.26;80.33;97335.47;4983556;28;20070;-66
2023/07/10 04:10:14;;;;;;;0.80;0.80;;;;;;;18.46;79.20;97342.16;4984905;28;20073;-65
2023/07/10 04:12:42;;;;;;;0.90;0.90;;;;;;;18.69;78.96;97364.78;4976476;28;20050;-65
2023/07/10 04:15:09;;;;;;;0.80;0.80;;;;;;;18.22;77.94;97246.97;4997787;28;20441;-65
2023/07/10 04:17:36;;;;;;;0.90;0.90;;;;;;;18.80;76.57;97334.59;4984558;28;20138;-66
2023/07/10 04:20:03;;;;;;;0.88;0.88;;;;;;;19.17;75.37;97359.81;4984518;28;20125;-64
2023/07/10 04:22:30;;;;;;;0.82;0.82;;;;;;;19.18;75.02;97340.97;4984493;28;20050;-64
2023/07/10 04:25:04;;;;;;;0.90;0.90;;;;;;;18.86;74.67;97282.38;4982995;28;20523;-65
2023/07/10 04:27:33;;;;;;;0.90;0.90;;;;;;;19.39;73.96;97335.91;4984635;28;20053;-65
2023/07/10 04:30:00;;;;;;;0.90;0.90;;;;;;;19.76;72.81;97365.16;4983363;28;20053;-65
2023/07/10 04:32:27;;;;;;;0.90;0.90;;;;;;;19.79;73.37;97362.28;4983261;28;20085;-66
2023/07/10 04:34:54;;;;;;;1.00;1.00;;;;;;;20.04;71.79;97367.56;4984443;28;20511;-66
2023/07/10 04:37:20;;;;;;;0.90;0.90;;;;;;;19.63;73.94;97313.53;4984460;28;20460;-66
2023/07/10 04:39:47;;;;;;;0.90;0.90;;;;;;;19.58;73.32;97277.47;4984509;28;20058;-65
2023/07/10 04:42:14;;;;;;;0.90;0.90;;;;;;;20.20;73.92;97371.34;4984570;28;20323;-66
2023/07/10 04:44:40;;;;;;;0.90;0.90;;;;;;;20.27;73.50;97364.81;4984199;28;20062;-65
2023/07/10 04:47:07;;;;;;;1.00;1.00;;;;;;;19.99;72.88;97286.47;4984429;28;20054;-65
2023/07/10 04:49:34;;;;;;;0.90;0.90;;;;;;;20.42;71.90;97335.22;4984311;28;20050;-66
2023/07/10 04:52:01;;;;;;;0.80;0.80;;;;;;;20.67;71.33;97377.81;4982983;28;20381;-65
2023/07/10 04:54:27;;;;;;;0.93;0.93;;;;;;;20.30;71.04;97299.22;4984700;28;20046;-66
2023/07/10 04:56:54;;;;;;;0.93;0.93;;;;;;;19.13;71.61;97140.03;4983038;28;20058;-65
2023/07/10 04:59:21;;;;;;;0.80;0.80;;;;;;;20.29;70.87;97283.59;4984220;28;20109;-64
2023/07/10 05:01:47;;;;;;;0.90;0.90;;;;;;;20.86;69.98;97337.66;4982782;28;20061;-63
2023/07/10 05:04:14;;;;;;;0.90;0.90;;;;;;;20.83;70.07;97341.31;4984685;28;20050;-65
2023/07/10 05:06:41;;;;;;;0.82;0.82;;;;;;;21.12;70.46;97359.28;4982726;28;20050;-64
2023/07/10 05:09:07;;;;;;;0.80;0.80;;;;;;;21.02;69.59;97312.44;4983241;28;20054;-62
2023/07/10 05:11:34;;;;;;;0.80;0.80;;;;;;;21.37;69.23;97361.63;4984168;28;20052;-63
2023/07/10 05:14:01;;;;;;;0.90;0.90;;;;;;;21.20;67.47;97343.06;4962491;28;20054;-64
2023/07/10 05:16:29;;;;;;;0.85;0.85;;;;;;;21.25;68.68;97340.53;4982260;28;20504;-65
2023/07/10 05:18:56;;;;;;;1.00;1.00;;;;;;;21.65;67.37;97352.56;4982320;28;20414;-65
2023/07/10 05:21:23;;;;;;;1.00;1.00;;;;;;;21.86;65.55;97369.84;4983960;28;20061;-63
2023/07/10 05:23:49;;;;;;;0.85;0.85;;;;;;;21.44;66.09;97297.44;4983961;28;20108;-63
2023/07/10 05:26:19;;;;;;;0.90;0.90;;;;;;;22.02;66.66;97361.44;4983702;28;20059;-64
2023/07/10 05:28:46;;;;;;;0.95;0.95;;;;;;;21.41;67.73;97275.78;4984359;28;20062;-64
2023/07/10 05:31:13;;;;;;;1.10;1.10;;;;;;;21.92;68.00;97348.38;4984062;28;20046;-64
2023/07/10 05:33:40;;;;;;;0.90;0.90;;;;;;;22.04;68.00;97339.22;4984177;28;20638;-64
2023/07/10 05:36:11;;;;;;;1.00;1.00;;;;;;;22.42;67.66;97359.28;4983666;28;20058;-64
2023/07/10 05:38:38;;;;;;;0.90;0.90;;;;;;;22.30;67.13;97329.72;4983924;28;20054;-64
2023/07/10 05:41:06;;;;;;;0.90;0.90;;;;;;;22.73;66.55;97359.75;4984039;28;20054;-65
2023/07/10 05:43:33;;;;;;;1.00;1.00;;;;;;;22.61;66.62;97324.53;4984664;28;20054;-65
2023/07/10 05:46:01;;;;;;;1.00;1.00;;;;;;;22.56;66.03;97310.16;4981097;28;20058;-64
2023/07/10 05:48:29;;;;;;;1.00;1.00;;;;;;;21.40;66.70;97132.47;4979273;28;20073;-69
2023/07/10 05:50:56;;;;;;;0.90;0.90;;;;;;;22.84;66.11;97315.84;4988861;28;20058;-64
2023/07/10 05:53:23;;;;;;;1.00;1.00;;;;;;;22.84;65.08;97287.59;4984576;28;20046;-62
2023/07/10 05:55:52;;;;;;;1.00;1.00;;;;;;;22.22;64.87;97144.06;4985919;28;20144;-70
2023/07/10 05:58:29;;;;;;;1.00;1.00;;;;;;;23.27;64.71;97276.72;4983503;28;20046;-65
2023/07/10 06:00:58;;;;;;;1.20;1.20;;;;;;;23.18;63.91;97216.38;4966964;28;20539;-72
2023/07/10 06:03:26;;;;;;;1.10;1.10;;;;;;;24.11;62.99;97346.91;4967604;28;20158;-61
2023/07/10 06:05:59;;;;;;;1.00;1.00;;;;;;;23.87;61.75;97280.53;4972407;28;20050;-66
2023/07/10 06:08:27;;;;;;;1.20;1.20;;;;;;;24.31;61.20;97315.56;4971599;28;20094;-69
2023/07/10 06:10:54;;;;;;;1.10;1.10;;;;;;;24.68;62.99;97352.34;4987402;28;20050;-67
2023/07/10 06:13:21;;;;;;;1.20;1.20;;;;;;;24.67;63.52;97350.78;4967060;28;20129;-65
2023/07/10 06:15:51;;;;;;;1.00;1.00;;;;;;;25.09;63.01;97349.31;4985492;28;20448;-63
2023/07/10 06:18:18;;;;;;;1.13;1.13;;;;;;;24.61;62.78;97250.56;4985970;28;20050;-70
2023/07/10 06:20:56;;;;;;;1.20;1.20;;;;;;;25.43;59.33;97344.88;4983096;28;20054;-64
2023/07/10 06:23:25;;;;;;;1.10;1.10;;;;;;;25.27;63.34;97343.81;4986515;28;20441;-62
2023/07/10 06:25:52;;;;;;;1.17;1.17;;;;;;;25.38;62.02;97336.97;4985182;28;20046;-62
2023/07/10 06:28:20;;;;;;;1.20;1.20;;;;;;;25.53;60.31;97321.00;4984615;28;20069;-72
2023/07/10 06:30:56;;;;;;;1.25;1.25;;;;;;;25.86;59.20;97337.13;4984448;28;20086;-69
2023/07/10 06:33:24;;;;;;;1.20;1.20;;;;;;;26.03;57.26;97329.22;4983268;28;20108;-65
2023/07/10 06:35:50;;;;;;;1.30;1.30;;;;;;;26.01;57.13;97317.53;4991622;28;20050;-62
2023/07/10 06:38:17;;;;;;;1.27;1.27;;;;;;;26.15;55.91;97282.88;4982555;28;20054;-69
2023/07/10 06:40:47;;;;;;;1.35;1.35;;;;;;;26.68;55.77;97319.22;4984280;28;20055;-66
2023/07/10 06:43:14;;;;;;;1.33;1.33;;;;;;;26.53;56.43;97240.69;4983441;28;20050;-62
2023/07/10 06:45:43;;;;;;;1.38;1.38;;;;;;;26.84;50.12;97261.31;4981713;28;20203;-67
2023/07/10 06:48:11;;;;;;;1.20;1.20;;;;;;;27.36;49.92;97323.56;4980795;28;20061;-66
2023/07/10 06:50:38;;;;;;;1.48;1.48;;;;;;;26.98;47.76;97249.31;4988066;28;20050;-65
2023/07/10 06:53:05;;;;;;;1.67;1.67;;;;;;;27.65;47.95;97332.41;4983629;28;20050;-66
2023/07/10 06:55:57;;;;;;;1.60;1.60;;;;;;;27.66;53.06;97339.69;4996846;28;20575;-72
2023/07/10 06:58:24;;;;;;;1.40;1.40;;;;;;;27.50;54.13;97334.34;4988760;28;20381;-67
2023/07/10 07:00:51;;;;;;;1.40;1.40;;;;;;;27.66;53.41;97342.53;4981174;28;20129;-65
2023/07/10 07:03:18;;;;;;;1.52;1.52;;;;;;;27.41;52.04;97297.34;4983887;28;20054;-64
2023/07/10 07:05:46;;;;;;;1.60;1.60;;;;;;;27.59;51.20;97308.72;4984287;28;20054;-61
2023/07/10 07:08:13;;;;;;;1.50;1.50;;;;;;;27.38;51.08;97338.13;4988575;28;20084;-65
2023/07/10 07:10:41;;;;;;;1.42;1.42;;;;;;;27.62;50.32;97310.59;4982718;28;20097;-71
2023/07/10 07:13:08;;;;;;;1.50;1.50;;;;;;;27.93;49.39;97342.50;4986496;28;20042;-70
2023/07/10 07:15:35;;;;;;;1.50;1.50;;;;;;;26.95;49.18;97136.50;4984344;28;20492;-76
2023/07/10 07:18:03;;;;;;;1.60;1.60;;;;;;;28.08;48.64;97292.16;4984895;28;20058;-62
2023/07/10 07:20:31;;;;;;;1.70;1.70;;;;;;;28.23;48.79;97312.22;4985448;28;20074;-66
2023/07/10 07:22:57;;;;;;;1.77;1.77;;;;;;;28.34;47.77;97274.63;4984225;28;20054;-71
2023/07/10 07:25:27;;;;;;;1.50;1.50;;;;;;;28.25;47.89;97261.19;4982609;28;20050;-75
2023/07/10 07:27:54;;;;;;;1.70;1.70;;;;;;;28.93;47.03;97322.13;4983924;28;20436;-74
2023/07/10 07:30:21;;;;;;;1.60;1.60;;;;;;;28.27;45.88;97183.78;4983601;28;20050;-71
2023/07/10 07:32:47;;;;;;;2.00;2.00;;;;;;;29.37;44.11;97320.28;4984447;28;20054;-69
2023/07/10 07:35:14;;;;;;;1.88;1.88;;;;;;;29.40;43.65;97325.00;4979460;28;20445;-66
2023/07/10 07:37:41;;;;;;;1.70;1.70;;;;;;;29.40;44.48;97300.06;4984211;28;20061;-63
2023/07/10 07:40:09;;;;;;;1.60;1.60;;;;;;;29.14;45.07;97318.22;4983719;28;20141;-66
2023/07/10 07:42:36;;;;;;;1.67;1.67;;;;;;;28.77;45.27;97317.63;4984898;28;20489;-71
2023/07/10 07:45:03;;;;;;;1.70;1.70;;;;;;;29.09;44.92;97307.47;4982127;28;21644;-69
2023/07/10 07:47:30;;;;;;;1.88;1.88;;;;;;;28.63;43.29;97157.91;4991222;28;20050;-68
2023/07/10 07:49:58;;;;;;;1.60;1.60;;;;;;;29.51;40.42;97270.97;4984210;28;20054;-65
2023/07/10 07:52:24;;;;;;;4.50;4.40;;;;;;;29.51;41.14;97236.69;4982588;28;20481;-65
2023/07/10 07:54:51;;;;;;;4.50;4.40;;;;;;;30.02;40.46;97299.94;4984517;28;20439;-65
2023/07/10 07:57:18;;;;;;;4.20;4.10;;;;;;;30.34;40.11;97304.69;4982548;28;20050;-67
2023/07/10 07:59:44;;;;;;;4.40;4.30;;;;;;;30.20;40.01;97288.31;4984447;28;20538;-67
2023/07/10 08:02:11;;;;;;;4.68;4.57;;;;;;;29.45;39.72;97170.13;4982135;28;20065;-66
2023/07/10 08:04:38;;;;;;;4.38;4.28;;;;;;;29.62;39.48;97196.13;4984224;28;20137;-65
2023/07/10 08:07:05;;;;;;;4.53;4.43;;;;;;;29.93;39.66;97234.34;4987084;28;20050;-67
2023/07/10 08:09:32;;;;;;;4.70;4.60;;;;;;;30.35;39.48;97289.09;4991253;28;20105;-65
2023/07/10 08:11:59;;;;;;;4.60;4.50;;;;;;;30.71;39.35;97300.03;4982993;28;20054;-64
2023/07/10 08:14:29;;;;;;;4.28;4.18;;;;;;;30.57;39.66;97272.28;4983472;28;20132;-68
2023/07/10 08:16:56;;;;;;;4.75;4.65;;;;;;;30.65;40.47;97284.88;4983989;28;20061;-67
2023/07/10 08:19:22;;;;;;;4.28;4.18;;;;;;;30.83;38.89;97221.69;4983415;28;20705;-64
2023/07/10 08:21:50;;;;;;;4.72;4.63;;;;;;;31.27;39.46;97263.59;4983472;28;20051;-61
2023/07/10 08:24:17;;;;;;;4.40;4.30;;;;;;;31.14;37.75;97194.47;4984707;28;20046;-65
2023/07/10 08:26:43;;;;;;;5.03;4.93;;;;;;;31.71;37.90;97244.06;4984795;28;20050;-67
2023/07/10 08:29:32;;;;;;;4.53;4.43;;;;;;;31.80;37.24;97269.66;4981463;28;20046;-67
2023/07/10 08:32:00;;;;;;;4.78;4.68;;;;;;;31.43;36.28;97255.22;4983297;28;20141;-66
2023/07/10 08:34:29;;;;;;;4.63;4.53;;;;;;;30.97;36.10;97211.44;4980589;28;20136;-61
2023/07/10 08:36:56;;;;;;;4.53;4.43;;;;;;;30.66;36.57;97211.28;4965675;28;20046;-66
2023/07/10 08:39:23;;;;;;;4.50;4.40;;;;;;;31.06;36.99;97276.34;4983715;28;20110;-70
2023/07/10 08:42:02;;;;;;;4.57;4.47;;;;;;;31.19;37.12;97273.91;4982964;28;20050;-66
2023/07/10 08:44:38;;;;;;;4.75;4.65;;;;;;;31.19;35.95;97276.78;4981093;28;20476;-65
2023/07/10 08:47:17;;;;;;;4.60;4.50;;;;;;;30.70;37.60;97189.75;4981339;28;20563;-63
2023/07/10 08:49:55;;;;;;;5.22;5.13;;;;;;;31.18;36.87;97249.44;4974405;28;20576;-63
2023/07/10 08:52:33;;;;;;;4.63;4.53;;;;;;;31.96;35.84;97266.97;4982334;28;20050;-65
2023/07/10 08:55:01;;;;;;;4.90;4.80;;;;;;;31.96;35.24;97260.47;4983654;28;20120;-65
2023/07/10 08:57:35;;;;;;;4.68;4.57;;;;;;;31.66;35.92;97191.13;4983228;28;20438;-64
2023/07/10 09:00:10;;;;;;;4.90;4.80;;;;;;;32.16;35.70;97246.03;4981298;28;20061;-67
2023/07/10 09:02:51;;;;;;;4.68;4.57;;;;;;;32.44;36.12;97249.91;4984166;28;20535;-64
2023/07/10 09:05:25;;;;;;;4.43;4.32;;;;;;;32.51;35.75;97255.19;4982834;28;20054;-66
2023/07/10 09:07:54;;;;;;;5.05;4.95;;;;;;;32.51;34.44;97255.19;4980812;28;20053;-64
2023/07/10 09:10:26;;;;;;;4.80;4.70;;;;;;;31.65;35.52;97234.59;4972904;28;20536;-64
2023/07/10 09:12:56;;;;;;;4.55;4.45;;;;;;;31.38;37.04;97240.84;4964956;28;20066;-64
2023/07/10 09:15:30;;;;;;;4.75;4.65;;;;;;;31.33;36.86;97184.31;4975778;28;20050;-66
2023/07/10 09:18:21;;;;;;;4.72;4.63;;;;;;;31.45;35.50;97260.44;4985801;28;20053;-65
2023/07/10 09:20:59;;;;;;;4.40;4.30;;;;;;;31.90;36.34;97245.31;4983920;28;20061;-65
2023/07/10 09:23:33;;;;;;;4.70;4.60;;;;;;;30.98;35.44;97164.38;4995394;28;20046;-68
2023/07/10 09:26:18;;;;;;;4.90;4.80;;;;;;;31.05;36.30;97180.34;4983458;28;20490;-64
2023/07/10 09:29:11;;;;;;;4.55;4.45;;;;;;;31.46;36.32;97253.44;4988269;28;20046;-63
2023/07/10 09:31:42;;;;;;;4.95;4.85;;;;;;;31.43;36.65;97252.34;4968683;28;20055;-63
2023/07/10 09:34:11;;;;;;;4.47;4.38;;;;;;;31.46;35.27;97193.28;4985283;28;20108;-65
2023/07/10 09:36:38;;;;;;;4.90;4.80;;;;;;;31.68;34.82;97227.88;5005307;28;20481;-66
2023/07/10 09:39:04;;;;;;;4.78;4.68;;;;;;;32.01;34.60;97263.38;4987968;28;20465;-65
2023/07/10 09:41:31;;;;;;;4.82;4.72;;;;;;;32.27;33.24;97226.03;4985454;28;20085;-65
2023/07/10 09:43:58;;;;;;;4.88;4.78;;;;;;;32.51;33.62;97260.94;4984884;28;20539;-65
2023/07/10 09:46:31;;;;;;;4.68;4.57;;;;;;;31.94;34.82;97260.19;4986636;28;20109;-68
2023/07/10 09:49:03;;;;;;;5.10;5.00;;;;;;;31.72;34.41;97234.16;4986703;28;20614;-66
2023/07/10 09:51:30;;;;;;;4.47;4.37;;;;;;;31.69;34.32;97223.72;4986062;28;20061;-66
2023/07/10 09:54:04;;;;;;;5.53;5.38;;;;;;;31.44;35.36;97190.16;4983739;28;20457;-65
2023/07/10 09:56:35;;;;;;;4.50;4.40;;;;;;;31.26;36.60;97231.31;4984931;28;20145;-62
2023/07/10 09:59:16;;;;;;;4.50;4.40;;;;;;;31.12;35.96;97214.22;4984920;28;20054;-67
2023/07/10 10:01:46;;;;;;;4.72;4.63;;;;;;;28.96;36.58;97007.38;4983711;28;20058;-62
2023/07/10 10:04:20;;;;;;;4.60;4.50;;;;;;;30.67;36.57;97247.97;4984656;28;20050;-61
2023/07/10 10:06:55;;;;;;;4.55;4.45;;;;;;;30.65;36.86;97255.50;4984611;28;20058;-62
2023/07/10 10:09:25;;;;;;;4.65;4.55;;;;;;;30.43;38.32;97247.38;4985714;28;20054;-64
2023/07/10 10:11:57;;;;;;;4.30;4.20;;;;;;;30.65;37.34;97244.81;4984740;28;20054;-65
2023/07/10 10:14:38;;;;;;;4.30;4.20;;;;;;;30.79;36.84;97226.84;4986393;28;20054;-64
2023/07/10 10:17:09;;;;;;;4.78;4.68;;;;;;;29.72;37.31;97035.59;4986354;28;20584;-61
2023/07/10 10:19:42;;;;;;;4.53;4.43;;;;;;;30.98;36.91;97240.88;4987074;28;20073;-62
2023/07/10 10:22:11;;;;;;;4.65;4.55;;;;;;;31.08;35.64;97236.56;4986834;28;20069;-63
2023/07/10 10:24:38;;;;;;;5.00;4.90;;;;;;;31.07;36.13;97234.97;4986707;28;20054;-62
2023/07/10 10:27:16;;;;;;;4.78;4.68;;;;;;;30.58;37.48;97233.81;4950045;28;20078;-64
2023/07/10 10:30:08;;;;;;;4.30;4.20;;;;;;;30.67;37.32;97242.25;4986474;28;20569;-62
2023/07/10 10:33:18;;;;;;;4.47;4.38;;;;;;;30.63;37.18;97175.91;4970041;28;20156;-64
2023/07/10 10:36:04;;;;;;;4.60;4.50;;;;;;;30.71;33.37;97128.38;4993532;28;20054;-65
2023/07/10 10:38:56;;;;;;;4.43;4.32;;;;;;;30.92;34.56;97141.41;4982286;28;20058;-66
2023/07/10 10:41:45;;;;;;;4.13;4.03;;;;;;;31.44;36.63;97207.31;4982332;28;20050;-62
2023/07/10 10:44:41;;;;;;;4.80;4.70;;;;;;;31.46;35.54;97221.94;4986101;28;20047;-61
2023/07/10 10:47:26;;;;;;;5.28;5.18;;;;;;;31.18;38.39;97186.44;4985115;28;20054;-62
2023/07/10 10:50:40;;;;;;;4.50;4.40;;;;;;;30.91;36.86;97222.84;4986048;28;20051;-65
2023/07/10 10:53:29;;;;;;;4.63;4.53;;;;;;;30.79;36.20;97218.25;4984219;28;20058;-66
2023/07/10 10:55:56;;;;;;;4.80;4.70;;;;;;;31.27;34.18;97220.66;4986367;28;20065;-66
2023/07/10 10:58:35;;;;;;;4.30;4.20;;;;;;;30.70;34.33;97081.06;4985505;28;20058;-62
2023/07/10 11:01:35;;;;;;;4.40;4.30;;;;;;;31.83;32.75;97174.06;4984804;28;20046;-65
2023/07/10 11:04:18;;;;;;;4.60;4.50;;;;;;;32.02;34.55;97201.09;4986711;28;20046;-61
2023/07/10 11:06:58;;;;;;;4.90;4.80;;;;;;;31.88;35.86;97197.09;4986194;28;20054;-66
2023/07/10 11:09:48;;;;;;;4.88;4.78;;;;;;;31.35;38.00;97181.69;4985638;28;20615;-64
2023/07/10 11:12:22;;;;;;;5.03;4.93;;;;;;;31.78;35.17;97197.72;4971633;28;20047;-62
2023/07/10 11:14:55;;;;;;;4.47;4.38;;;;;;;32.15;37.07;97198.59;4966233;28;20149;-62
2023/07/10 11:17:22;;;;;;;4.55;4.45;;;;;;;31.40;36.86;97172.38;4975018;28;20056;-62
2023/07/10 11:19:50;;;;;;;4.28;4.18;;;;;;;30.93;38.91;97174.47;4985384;28;20182;-66
2023/07/10 11:22:29;;;;;;;4.30;4.20;;;;;;;31.46;37.59;97187.56;4984757;28;20441;-61
2023/07/10 11:24:56;;;;;;;4.60;4.50;;;;;;;31.94;36.92;97189.31;4983788;28;20141;-62
2023/07/10 11:27:32;;;;;;;5.00;4.90;;;;;;;31.53;36.65;97181.38;4984991;28;20101;-62
2023/07/10 11:30:15;;;;;;;4.28;4.18;;;;;;;29.78;36.61;96975.72;4984891;28;20493;-67
2023/07/10 11:32:57;;;;;;;;;;;;;;;31.40;35.57;97176.03;4984161;28;20046;-62
2023/07/10 11:35:25;;;;;;;4.70;4.60;;;;;;;31.42;37.60;97182.06;4985330;28;20369;-65
2023/07/10 11:37:51;;;;;;;4.40;4.30;;;;;;;31.22;37.82;97178.44;4985457;28;20058;-61
2023/07/10 11:40:27;;;;;;;4.70;4.60;;;;;;;31.75;37.14;97181.56;4983649;28;20050;-66
2023/07/10 11:43:01;;;;;;;4.75;4.65;;;;;;;31.48;36.90;97139.13;4985562;28;20077;-65
2023/07/10 11:45:35;;;;;;;4.57;4.47;;;;;;;31.99;37.58;97179.97;4983972;28;20165;-62
2023/07/10 11:48:56;;;;;;;5.35;5.25;;;;;;;32.19;37.53;97174.13;4983111;28;20429;-61
2023/07/10 11:51:29;;;;;;;4.78;4.68;;;;;;;31.85;36.61;97157.19;4984402;28;20513;-62